createdAt,value
2018-09-26T00:00:16.779Z,2.8
2018-09-26T00:01:07.418Z,2.8
2018-09-26T00:01:57.208Z,2.8
2018-09-26T00:02:46.966Z,2.8
2018-09-26T00:03:37.036Z,2.8
2018-09-26T00:04:27.103Z,2.8
2018-09-26T00:05:17.160Z,2.8
2018-09-26T00:06:07.497Z,2.8
2018-09-26T00:06:57.555Z,2.8
2018-09-26T00:07:47.630Z,2.8
2018-09-26T00:08:37.397Z,2.7
2018-09-26T00:09:27.745Z,2.7
2018-09-26T00:10:17.779Z,2.7
2018-09-26T00:11:07.582Z,2.7
2018-09-26T00:11:57.977Z,2.7
2018-09-26T00:12:47.982Z,2.6
2018-09-26T00:13:37.755Z,2.6
2018-09-26T00:14:28.097Z,2.6
2018-09-26T00:15:18.164Z,2.6
2018-09-26T00:16:07.662Z,2.6
2018-09-26T00:16:57.998Z,2.6
2018-09-26T00:17:48.072Z,2.6
2018-09-26T00:18:38.497Z,2.6
2018-09-26T00:19:28.484Z,2.6
2018-09-26T00:20:18.254Z,2.5
2018-09-26T00:21:08.602Z,2.5
2018-09-26T00:21:58.371Z,2.5
2018-09-26T00:22:48.427Z,2.5
2018-09-26T00:23:38.737Z,2.4
2018-09-26T00:24:28.554Z,2.5
2018-09-26T00:25:18.901Z,2.4
2018-09-26T00:26:08.744Z,2.4
2018-09-26T00:26:59.044Z,2.4
2018-09-26T00:27:49.086Z,2.4
2018-09-26T00:28:39.464Z,2.4
2018-09-26T00:29:29.208Z,2.4
2018-09-26T00:30:19.306Z,2.4
2018-09-26T00:31:09.058Z,2.3
2018-09-26T00:31:59.401Z,2.3
2018-09-26T00:32:49.178Z,2.3
2018-09-26T00:33:39.521Z,2.3
2018-09-26T00:34:29.601Z,2.3
2018-09-26T00:35:19.361Z,2.3
2018-09-26T00:36:09.773Z,2.3
2018-09-26T00:36:59.760Z,2.3
2018-09-26T00:55:23.007Z,1.8
2018-09-26T00:56:13.282Z,1.8
2018-09-26T00:57:03.371Z,1.8
2018-09-26T00:57:53.172Z,1.8
2018-09-26T00:58:42.959Z,1.8
2018-09-26T00:59:33.287Z,1.8
2018-09-26T01:00:23.987Z,1.8
2018-09-26T01:01:13.636Z,1.7
2018-09-26T01:02:03.182Z,1.7
2018-09-26T01:02:53.531Z,1.7
2018-09-26T01:03:43.872Z,1.6
2018-09-26T01:04:33.911Z,1.6
2018-09-26T01:05:24.056Z,1.6
2018-09-26T01:06:14.049Z,1.6
2018-09-26T01:07:03.814Z,1.6
2018-09-26T01:07:54.163Z,1.6
2018-09-26T01:08:44.230Z,1.6
2018-09-26T01:09:34.286Z,1.5
2018-09-26T01:10:24.061Z,1.5
2018-09-26T01:11:14.174Z,1.5
2018-09-26T01:12:04.465Z,1.4
2018-09-26T01:12:54.563Z,1.4
2018-09-26T01:13:44.591Z,1.4
2018-09-26T01:14:34.656Z,1.4
2018-09-26T01:15:24.713Z,1.4
2018-09-26T01:16:15.165Z,1.4
2018-09-26T01:17:04.856Z,1.4
2018-09-26T01:17:54.346Z,1.4
2018-09-26T01:18:44.693Z,1.3
2018-09-26T01:19:35.041Z,1.3
2018-09-26T01:20:25.091Z,1.3
2018-09-26T01:21:14.586Z,1.3
2018-09-26T01:22:05.231Z,1.3
2018-09-26T01:22:55.283Z,1.3
2018-09-26T01:23:45.328Z,1.3
2018-09-26T01:24:35.406Z,1.3
2018-09-26T01:25:25.471Z,1.3
2018-09-26T01:26:15.564Z,1.2
2018-09-26T01:27:05.575Z,1.2
2018-09-26T01:27:55.656Z,1.2
2018-09-26T01:28:45.711Z,1.2
2018-09-26T01:29:35.785Z,1.1
2018-09-26T01:30:25.543Z,1.1
2018-09-26T01:31:15.936Z,1.1
2018-09-26T01:32:05.943Z,1.1
2018-09-26T01:32:55.736Z,1.1
2018-09-26T01:33:45.795Z,1.1
2018-09-26T01:34:35.845Z,1.1
2018-09-26T01:35:25.927Z,1.1
2018-09-26T01:36:16.585Z,1.1
2018-09-26T01:37:06.364Z,1
2018-09-26T01:37:56.382Z,1
2018-09-26T01:38:46.175Z,1
2018-09-26T01:39:36.515Z,1
2018-09-26T01:40:26.000Z,1
2018-09-26T01:41:16.424Z,0.9
2018-09-26T01:42:06.917Z,0.9
2018-09-26T01:42:56.796Z,0.9
2018-09-26T01:43:46.817Z,0.9
2018-09-26T01:44:36.887Z,0.9
2018-09-26T01:45:26.659Z,0.9
2018-09-26T01:46:16.425Z,0.9
2018-09-26T01:47:07.309Z,0.9
2018-09-26T01:47:56.849Z,0.9
2018-09-26T01:48:46.912Z,0.9
2018-09-26T01:49:36.965Z,0.9
2018-09-26T01:50:27.299Z,0.9
2018-09-26T01:51:17.094Z,0.9
2018-09-26T01:52:06.963Z,0.9
2018-09-26T01:52:57.760Z,0.8
2018-09-26T01:53:47.279Z,0.8
2018-09-26T01:54:37.336Z,0.8
2018-09-26T01:55:27.676Z,0.8
2018-09-26T01:56:17.461Z,0.8
2018-09-26T01:57:07.572Z,0.8
2018-09-26T01:57:57.872Z,0.8
2018-09-26T01:58:47.924Z,0.8
2018-09-26T01:59:37.996Z,0.8
2018-09-26T02:00:27.763Z,0.8
2018-09-26T02:01:18.119Z,0.7
2018-09-26T02:02:07.898Z,0.7
2018-09-26T02:02:58.228Z,0.7
2018-09-26T02:03:48.023Z,0.7
2018-09-26T02:04:38.077Z,0.7
2018-09-26T02:05:28.428Z,0.7
2018-09-26T02:06:18.210Z,0.6
2018-09-26T02:07:08.255Z,0.6
2018-09-26T02:07:58.616Z,0.6
2018-09-26T02:08:48.665Z,0.6
2018-09-26T02:09:38.715Z,0.6
2018-09-26T02:10:28.501Z,0.6
2018-09-26T02:11:17.985Z,0.6
2018-09-26T02:12:08.930Z,0.6
2018-09-26T02:12:58.962Z,0.6
2018-09-26T02:13:49.028Z,0.6
2018-09-26T02:14:39.105Z,0.6
2018-09-26T02:15:29.165Z,0.6
2018-09-26T02:16:19.198Z,0.6
2018-09-26T02:17:09.015Z,0.5
2018-09-26T02:17:59.366Z,0.5
2018-09-26T02:18:49.480Z,0.5
2018-09-26T02:19:39.193Z,0.5
2018-09-26T02:20:28.965Z,0.5
2018-09-26T02:21:19.309Z,0.4
2018-09-26T02:22:09.642Z,0.4
2018-09-26T02:22:59.470Z,0.4
2018-09-26T02:23:50.022Z,0.4
2018-09-26T02:24:39.832Z,0.4
2018-09-26T02:25:29.602Z,0.4
2018-09-26T02:26:19.957Z,0.4
2018-09-26T02:27:10.048Z,0.4
2018-09-26T02:28:00.095Z,0.4
2018-09-26T02:28:50.171Z,0.4
2018-09-26T02:29:40.209Z,0.4
2018-09-26T02:30:29.994Z,0.4
2018-09-26T02:31:20.064Z,0.4
2018-09-26T02:32:09.531Z,0.4
2018-09-26T02:33:00.471Z,0.4
2018-09-26T02:33:50.276Z,0.3
2018-09-26T02:34:40.574Z,0.4
2018-09-26T02:35:30.635Z,0.3
2018-09-26T02:36:20.399Z,0.3
2018-09-26T02:37:10.746Z,0.3
2018-09-26T02:38:00.549Z,0.3
2018-09-26T02:38:51.136Z,0.3
2018-09-26T02:39:40.961Z,0.3
2018-09-26T02:40:30.717Z,0.3
2018-09-26T02:41:21.106Z,0.3
2018-09-26T02:42:10.833Z,0.3
2018-09-26T02:43:00.326Z,0.3
2018-09-26T02:43:51.299Z,0.3
2018-09-26T02:44:41.567Z,0.3
2018-09-26T02:45:31.391Z,0.3
2018-09-26T02:46:21.436Z,0.3
2018-09-26T02:47:11.506Z,0.3
2018-09-26T02:48:01.554Z,0.3
2018-09-26T02:48:51.647Z,0.3
2018-09-26T02:49:41.437Z,0.3
2018-09-26T02:50:31.745Z,0.3
2018-09-26T02:51:21.806Z,0.3
2018-09-26T02:52:11.573Z,0.3
2018-09-26T02:53:01.930Z,0.3
2018-09-26T02:53:52.225Z,0.3
2018-09-26T02:54:42.035Z,0.3
2018-09-26T02:55:31.881Z,0.3
2018-09-26T02:56:22.162Z,0.3
2018-09-26T02:57:12.234Z,0.3
2018-09-26T02:58:02.017Z,0.3
2018-09-26T02:58:51.783Z,0.4
2018-09-26T02:59:42.455Z,0.4
2018-09-26T03:00:32.227Z,0.3
2018-09-26T03:01:22.252Z,0.4
2018-09-26T03:02:12.599Z,0.4
2018-09-26T03:03:02.675Z,0.4
2018-09-26T03:03:53.030Z,0.4
2018-09-26T03:04:42.779Z,0.4
2018-09-26T03:05:32.845Z,0.4
2018-09-26T03:06:22.916Z,0.4
2018-09-26T03:07:12.693Z,0.4
2018-09-26T03:08:02.490Z,0.4
2018-09-26T03:08:53.107Z,0.4
2018-09-26T03:09:43.144Z,0.4
2018-09-26T03:10:33.279Z,0.4
2018-09-26T03:11:23.284Z,0.4
2018-09-26T03:12:12.777Z,0.4
2018-09-26T03:13:03.120Z,0.4
2018-09-26T03:13:53.469Z,0.4
2018-09-26T03:14:43.522Z,0.4
2018-09-26T03:15:33.576Z,0.4
2018-09-26T03:16:23.651Z,0.4
2018-09-26T03:17:13.142Z,0.4
2018-09-26T03:18:03.480Z,0.4
2018-09-26T03:18:53.827Z,0.4
2018-09-26T03:19:43.883Z,0.4
2018-09-26T03:20:33.945Z,0.4
2018-09-26T03:21:23.726Z,0.4
2018-09-26T03:22:14.091Z,0.4
2018-09-26T03:23:04.131Z,0.4
2018-09-26T03:23:53.919Z,0.4
2018-09-26T03:24:44.519Z,0.4
2018-09-26T03:25:34.895Z,0.4
2018-09-26T03:26:24.387Z,0.4
2018-09-26T03:27:14.454Z,0.4
2018-09-26T03:28:04.516Z,0.4
2018-09-26T03:28:54.289Z,0.4
2018-09-26T03:29:44.614Z,0.4
2018-09-26T03:30:34.428Z,0.4
2018-09-26T03:31:24.464Z,0.5
2018-09-26T03:32:14.570Z,0.4
2018-09-26T03:33:04.603Z,0.4
2018-09-26T03:33:54.377Z,0.4
2018-09-26T03:34:44.987Z,0.4
2018-09-26T03:35:35.337Z,0.5
2018-09-26T03:36:25.378Z,0.5
2018-09-26T03:37:15.196Z,0.5
2018-09-26T03:38:05.255Z,0.5
2018-09-26T03:38:55.290Z,0.5
2018-09-26T03:39:45.083Z,0.5
2018-09-26T03:40:35.167Z,0.5
2018-09-26T03:41:25.500Z,0.5
2018-09-26T03:42:15.574Z,0.5
2018-09-26T03:43:05.040Z,0.5
2018-09-26T03:43:55.706Z,0.5
2018-09-26T03:44:45.454Z,0.5
2018-09-26T03:45:35.516Z,0.5
2018-09-26T03:46:25.878Z,0.5
2018-09-26T03:47:15.917Z,0.5
2018-09-26T03:48:06.003Z,0.5
2018-09-26T03:48:56.034Z,0.4
2018-09-26T03:49:45.834Z,0.5
2018-09-26T03:50:35.884Z,0.5
2018-09-26T03:51:26.240Z,0.4
2018-09-26T03:52:16.289Z,0.5
2018-09-26T03:53:06.066Z,0.4
2018-09-26T03:53:56.389Z,0.4
2018-09-26T03:54:46.174Z,0.4
2018-09-26T03:55:36.516Z,0.4
2018-09-26T03:56:26.614Z,0.4
2018-09-26T03:57:16.656Z,0.4
2018-09-26T03:58:06.719Z,0.4
2018-09-26T03:58:56.495Z,0.4
2018-09-26T03:59:46.542Z,0.4
2018-09-26T04:00:36.606Z,0.4
2018-09-26T04:01:26.943Z,0.4
2018-09-26T04:02:17.063Z,0.4
2018-09-26T04:03:07.098Z,0.4
2018-09-26T04:03:57.155Z,0.4
2018-09-26T04:04:47.069Z,0.4
2018-09-26T04:05:36.995Z,0.4
2018-09-26T04:06:27.311Z,0.4
2018-09-26T04:07:16.830Z,0.4
2018-09-26T04:08:06.873Z,0.3
2018-09-26T04:08:57.532Z,0.3
2018-09-26T04:09:47.576Z,0.3
2018-09-26T04:10:37.647Z,0.3
2018-09-26T04:11:27.698Z,0.3
2018-09-26T04:12:17.760Z,0.3
2018-09-26T04:13:07.334Z,0.3
2018-09-26T04:13:57.860Z,0.3
2018-09-26T04:14:47.954Z,0.3
2018-09-26T04:15:38.319Z,0.3
2018-09-26T04:16:27.785Z,0.3
2018-09-26T04:17:18.147Z,0.3
2018-09-26T04:18:08.190Z,0.3
2018-09-26T04:18:57.967Z,0.3
2018-09-26T04:19:48.310Z,0.3
2018-09-26T04:20:38.378Z,0.3
2018-09-26T04:21:27.849Z,0.2
2018-09-26T04:22:18.497Z,0.2
2018-09-26T04:23:08.275Z,0.2
2018-09-26T04:23:58.671Z,0.2
2018-09-26T04:24:48.398Z,0.2
2018-09-26T04:25:38.736Z,0.1
2018-09-26T04:26:29.886Z,0.2
2018-09-26T04:27:19.504Z,0.1
2018-09-26T04:28:08.679Z,0.1
2018-09-26T04:28:58.983Z,0.1
2018-09-26T04:29:49.041Z,0.1
2018-09-26T04:30:38.896Z,0.1
2018-09-26T04:31:28.836Z,0.1
2018-09-26T04:32:19.225Z,0.1
2018-09-26T04:33:09.591Z,0.1
2018-09-26T04:33:59.751Z,0.1
2018-09-26T04:34:49.424Z,0.1
2018-09-26T04:35:39.461Z,0.1
2018-09-26T04:36:29.534Z,0.1
2018-09-26T04:37:19.606Z,0.1
2018-09-26T04:38:09.375Z,0.1
2018-09-26T04:38:59.794Z,0.1
2018-09-26T04:39:49.766Z,0.1
2018-09-26T04:40:39.270Z,0
2018-09-26T04:41:29.887Z,0
2018-09-26T04:42:19.947Z,0
2018-09-26T04:43:10.161Z,0
2018-09-26T04:43:59.516Z,0
2018-09-26T04:44:50.143Z,0
2018-09-26T04:45:40.201Z,0
2018-09-26T04:46:30.271Z,0
2018-09-26T04:47:20.323Z,0
2018-09-26T04:48:10.367Z,0
2018-09-26T04:49:00.200Z,0
2018-09-26T04:49:50.492Z,0.1
2018-09-26T04:50:40.724Z,0
2018-09-26T04:51:30.626Z,0.1
2018-09-26T04:52:20.403Z,0.1
2018-09-26T04:53:10.738Z,0
2018-09-26T04:54:00.873Z,0.1
2018-09-26T04:54:50.873Z,0.1
2018-09-26T04:55:40.927Z,0.1
2018-09-26T04:56:31.010Z,0.1
2018-09-26T04:57:21.052Z,0.1
2018-09-26T04:58:11.315Z,0.1
2018-09-26T04:59:01.218Z,0.1
2018-09-26T04:59:50.963Z,0.1
2018-09-26T05:00:41.300Z,0.1
2018-09-26T05:01:31.350Z,0.2
2018-09-26T05:02:21.428Z,0.2
2018-09-26T05:03:11.467Z,0.3
2018-09-26T05:04:01.536Z,0.3
2018-09-26T05:04:51.589Z,0.3
2018-09-26T05:05:41.695Z,0.3
2018-09-26T05:06:31.164Z,0.3
2018-09-26T05:07:21.787Z,0.4
2018-09-26T05:24:13.674Z,2
2018-09-26T05:25:03.313Z,2.1
2018-09-26T05:25:53.405Z,2.3
2018-09-26T05:26:43.448Z,2.4
2018-09-26T05:27:33.786Z,2.6
2018-09-26T05:28:23.564Z,2.8
2018-09-26T05:29:13.907Z,2.9
2018-09-26T05:30:03.669Z,3.1
2018-09-26T05:30:54.021Z,3.2
2018-09-26T05:31:44.076Z,3.4
2018-09-26T05:32:33.871Z,3.6
2018-09-26T05:33:24.215Z,3.8
2018-09-26T05:34:13.995Z,3.9
2018-09-26T05:35:04.310Z,4.1
2018-09-26T05:35:54.373Z,4.3
2018-09-26T05:36:44.463Z,4.5
2018-09-26T05:37:34.516Z,4.7
2018-09-26T05:38:24.602Z,4.9
2018-09-26T05:39:14.346Z,5.1
2018-09-26T05:40:04.430Z,5.3
2018-09-26T05:40:54.740Z,5.6
2018-09-26T05:41:45.105Z,5.8
2018-09-26T05:42:34.875Z,6
2018-09-26T05:43:24.940Z,6.2
2018-09-26T05:44:14.725Z,6.4
2018-09-26T05:45:05.066Z,6.7
2018-09-26T05:45:55.173Z,6.9
2018-09-26T05:46:45.265Z,7.2
2018-09-26T05:47:35.258Z,7.4
2018-09-26T05:48:25.041Z,7.7
2018-09-26T05:49:15.364Z,7.9
2018-09-26T05:50:05.167Z,8.3
2018-09-26T05:50:55.560Z,8.5
2018-09-26T05:51:45.275Z,8.8
2018-09-26T05:52:35.598Z,9.1
2018-09-26T05:53:25.563Z,9.4
2018-09-26T05:54:15.737Z,8.6
2018-09-26T05:55:05.835Z,7
2018-09-26T05:55:56.082Z,15.9
2018-09-26T05:56:45.914Z,22
2018-09-26T05:57:35.969Z,21.9
2018-09-26T05:58:26.057Z,25.8
2018-09-26T05:59:16.337Z,27.9
2018-09-26T06:00:06.200Z,28.4
2018-09-26T06:00:56.549Z,28.6
2018-09-26T06:01:46.699Z,28.5
2018-09-26T06:02:36.378Z,28.4
2018-09-26T06:03:26.121Z,28.3
2018-09-26T06:04:16.446Z,28.2
2018-09-26T06:05:06.534Z,28.1
2018-09-26T06:05:56.571Z,27.9
2018-09-26T06:07:36.426Z,27.8
2018-09-26T06:08:26.484Z,27.6
2018-09-26T06:09:16.827Z,27.6
2018-09-26T06:10:06.633Z,27.5
2018-09-26T06:10:56.941Z,27.2
2018-09-26T06:11:47.006Z,26.8
2018-09-26T06:12:37.095Z,25.1
2018-09-26T06:13:27.177Z,25.4
2018-09-26T06:14:17.284Z,26.1
2018-09-26T06:15:07.337Z,28.9
2018-09-26T06:15:57.483Z,30.2
2018-09-26T06:16:47.667Z,30.4
2018-09-26T06:17:37.508Z,29.9
2018-09-26T06:18:27.503Z,29.4
2018-09-26T06:19:17.562Z,28.9
2018-09-26T06:20:07.631Z,28.9
2018-09-26T06:20:57.389Z,29.1
2018-09-26T06:21:47.773Z,29.5
2018-09-26T06:22:37.831Z,29.9
2018-09-26T06:23:27.856Z,30.2
2018-09-26T06:24:17.956Z,30.3
2018-09-26T06:25:08.013Z,30.4
2018-09-26T06:25:58.125Z,30.3
2018-09-26T06:26:48.124Z,30.3
2018-09-26T06:27:38.170Z,30.4
2018-09-26T06:28:27.662Z,30.6
2018-09-26T06:29:18.303Z,30.9
2018-09-26T06:30:08.384Z,31.1
2018-09-26T06:30:58.411Z,31.3
2018-09-26T06:31:48.200Z,31.4
2018-09-26T06:32:38.534Z,31.6
2018-09-26T06:33:28.609Z,31.7
2018-09-26T06:34:18.687Z,31.9
2018-09-26T06:35:08.870Z,32.1
2018-09-26T06:35:58.787Z,32.3
2018-09-26T06:36:48.573Z,32.4
2018-09-26T06:37:38.614Z,32.6
2018-09-26T06:38:28.977Z,32.8
2018-09-26T06:39:19.047Z,32.9
2018-09-26T06:40:08.818Z,33.1
2018-09-26T06:40:58.596Z,33.3
2018-09-26T06:41:48.991Z,33.4
2018-09-26T06:42:39.285Z,33.6
2018-09-26T06:43:29.407Z,33.8
2018-09-26T06:44:19.396Z,33.9
2018-09-26T06:45:09.447Z,34.1
2018-09-26T06:45:59.516Z,34.3
2018-09-26T06:46:49.602Z,34.4
2018-09-26T06:47:40.041Z,34.6
2018-09-26T06:48:29.143Z,34.8
2018-09-26T06:49:19.760Z,34.9
2018-09-26T06:50:09.841Z,35.1
2018-09-26T06:50:59.598Z,35.3
2018-09-26T06:51:49.393Z,35.4
2018-09-26T06:52:40.024Z,35.6
2018-09-26T06:53:30.054Z,35.8
2018-09-26T06:54:19.870Z,35.9
2018-09-26T06:55:10.186Z,36.1
2018-09-26T06:56:00.264Z,36.3
2018-09-26T06:56:50.365Z,36.5
2018-09-26T06:57:40.146Z,36.6
2018-09-26T06:58:30.153Z,36.8
2018-09-26T06:59:20.516Z,37
2018-09-26T07:00:10.705Z,37.2
2018-09-26T07:01:00.603Z,37.4
2018-09-26T07:01:50.678Z,37.5
2018-09-26T07:02:40.749Z,37.7
2018-09-26T07:03:30.808Z,37.9
2018-09-26T07:04:20.865Z,38.1
2018-09-26T07:05:10.980Z,38.3
2018-09-26T07:06:00.708Z,38.4
2018-09-26T07:06:51.063Z,38.6
2018-09-26T07:07:41.090Z,38.8
2018-09-26T07:08:30.879Z,39
2018-09-26T07:09:20.964Z,39.1
2018-09-26T07:10:11.283Z,39.3
2018-09-26T07:11:01.372Z,39.4
2018-09-26T07:11:51.133Z,39.6
2018-09-26T07:12:41.488Z,39.8
2018-09-26T07:13:31.313Z,40
2018-09-26T07:14:21.035Z,40.1
2018-09-26T07:15:11.688Z,40.3
2018-09-26T07:16:01.732Z,40.4
2018-09-26T07:16:51.808Z,40.6
2018-09-26T07:17:42.109Z,40.8
2018-09-26T07:18:32.181Z,40.9
2018-09-26T07:19:21.970Z,41.1
2018-09-26T07:20:12.027Z,41.3
2018-09-26T07:21:02.124Z,41.4
2018-09-26T07:21:51.890Z,41.6
2018-09-26T07:22:42.225Z,41.8
2018-09-26T07:23:32.338Z,42
2018-09-26T07:24:22.042Z,42.2
2018-09-26T07:25:12.403Z,42.3
2018-09-26T07:26:02.476Z,42.5
2018-09-26T07:26:52.522Z,42.6
2018-09-26T07:27:42.893Z,42.8
2018-09-26T07:28:32.700Z,43
2018-09-26T07:29:22.704Z,43.1
2018-09-26T07:30:12.759Z,43.3
2018-09-26T07:31:02.824Z,43.5
2018-09-26T07:31:52.611Z,43.7
2018-09-26T07:32:42.727Z,43.8
2018-09-26T07:33:32.999Z,44
2018-09-26T07:34:23.064Z,44.2
2018-09-26T07:35:13.129Z,44.4
2018-09-26T07:36:02.634Z,44.6
2018-09-26T07:36:53.250Z,44.8
2018-09-26T07:37:43.035Z,44.9
2018-09-26T07:38:32.877Z,45.1
2018-09-26T07:39:23.165Z,45.3
2018-09-26T07:40:13.571Z,45.4
2018-09-26T07:41:03.271Z,45.6
2018-09-26T07:41:53.638Z,45.8
2018-09-26T07:42:42.839Z,45.9
2018-09-26T07:43:33.458Z,46.1
2018-09-26T07:44:23.531Z,46.3
2018-09-26T07:45:13.481Z,46.4
2018-09-26T07:46:03.101Z,46.6
2018-09-26T07:46:53.723Z,46.8
2018-09-26T07:47:44.063Z,47
2018-09-26T07:48:33.888Z,47.1
2018-09-26T07:49:23.868Z,47.3
2018-09-26T07:50:13.683Z,47.5
2018-09-26T07:51:04.156Z,47.6
2018-09-26T07:51:54.105Z,47.8
2018-09-26T07:52:44.128Z,48
2018-09-26T07:53:34.500Z,48.2
2018-09-26T07:54:24.544Z,48.3
2018-09-26T07:55:14.445Z,48.4
2018-09-26T07:56:04.487Z,48.4
2018-09-26T07:56:54.450Z,48.4
2018-09-26T07:57:44.814Z,48.5
2018-09-26T07:58:34.368Z,48.8
2018-09-26T07:59:24.696Z,49.1
2018-09-26T08:00:14.220Z,49.4
2018-09-26T08:01:04.774Z,49.6
2018-09-26T08:01:54.830Z,49.8
2018-09-26T08:02:44.674Z,49.9
2018-09-26T08:03:34.930Z,50.1
2018-09-26T08:04:25.559Z,50.3
2018-09-26T08:05:15.065Z,50.4
2018-09-26T08:06:05.966Z,50.6
2018-09-26T08:06:55.197Z,50.8
2018-09-26T08:07:45.075Z,50.9
2018-09-26T08:08:34.852Z,51
2018-09-26T08:09:24.885Z,51.2
2018-09-26T08:10:14.960Z,51.3
2018-09-26T08:11:05.319Z,51.5
2018-09-26T08:11:56.012Z,51.7
2018-09-26T08:12:45.912Z,51.9
2018-09-26T08:13:35.957Z,52
2018-09-26T08:14:26.019Z,52.2
2018-09-26T08:16:05.597Z,52.5
2018-09-26T08:16:56.204Z,52.7
2018-09-26T08:17:46.265Z,52.9
2018-09-26T08:18:36.397Z,53
2018-09-26T08:19:26.404Z,53.2
2018-09-26T08:20:16.449Z,53.3
2018-09-26T08:21:06.242Z,53.5
2018-09-26T08:21:56.599Z,53.6
2018-09-26T08:22:46.664Z,53.8
2018-09-26T08:23:36.775Z,53.9
2018-09-26T08:24:26.504Z,54.1
2018-09-26T08:25:16.224Z,54.3
2018-09-26T08:26:06.614Z,54.4
2018-09-26T08:26:56.931Z,54.6
2018-09-26T08:27:46.716Z,54.8
2018-09-26T08:28:36.774Z,54.9
2018-09-26T08:29:27.135Z,55.1
2018-09-26T08:30:17.201Z,55.2
2018-09-26T08:31:07.299Z,55.4
2018-09-26T08:31:57.310Z,55.6
2018-09-26T08:32:47.099Z,55.8
2018-09-26T08:33:37.465Z,55.9
2018-09-26T08:34:27.503Z,56.1
2018-09-26T08:35:17.564Z,56.3
2018-09-26T08:36:07.673Z,56.5
2018-09-26T08:36:57.671Z,56.6
2018-09-26T08:37:47.745Z,56.8
2018-09-26T08:38:37.813Z,56.8
2018-09-26T08:39:27.877Z,56.7
2018-09-26T08:40:17.951Z,56.3
2018-09-26T08:41:08.294Z,55.9
2018-09-26T08:41:57.490Z,55.5
2018-09-26T08:42:47.834Z,55.2
2018-09-26T08:43:38.175Z,54.9
2018-09-26T08:44:28.280Z,54.8
2018-09-26T08:45:18.309Z,54.6
2018-09-26T08:46:08.379Z,54.4
2018-09-26T08:46:58.402Z,54.3
2018-09-26T08:47:47.924Z,54.1
2018-09-26T08:48:38.559Z,53.9
2018-09-26T08:49:28.594Z,53.8
2018-09-26T08:50:18.704Z,53.6
2018-09-26T08:51:08.724Z,53.4
2018-09-26T08:51:58.778Z,53.3
2018-09-26T08:52:48.885Z,53.3
2018-09-26T08:53:39.033Z,53.4
2018-09-26T08:54:28.967Z,54
2018-09-26T08:55:19.031Z,54.8
2018-09-26T08:56:08.829Z,55.2
2018-09-26T08:56:59.171Z,55
2018-09-26T08:57:48.943Z,54.5
2018-09-26T08:58:39.258Z,53.9
2018-09-26T08:59:29.344Z,53.7
2018-09-26T09:00:19.125Z,53.6
2018-09-26T09:01:08.895Z,53.6
2018-09-26T09:01:59.503Z,53.5
2018-09-26T09:02:49.309Z,53.4
2018-09-26T09:03:39.645Z,53.3
2018-09-26T09:04:29.694Z,53.1
2018-09-26T09:05:19.768Z,52.9
2018-09-26T09:06:10.012Z,52.9
2018-09-26T09:06:59.608Z,53.4
2018-09-26T09:07:49.950Z,54.1
2018-09-26T09:08:39.715Z,54.8
2018-09-26T09:09:30.097Z,55.3
2018-09-26T09:10:20.130Z,55.5
2018-09-26T09:11:09.935Z,55.4
2018-09-26T09:12:00.260Z,55.5
2018-09-26T09:12:50.323Z,55.8
2018-09-26T09:13:40.364Z,56.1
2018-09-26T09:14:30.903Z,56.3
2018-09-26T09:15:20.522Z,56.1
2018-09-26T09:16:10.587Z,56.1
2018-09-26T09:17:00.407Z,56.4
2018-09-26T09:17:50.615Z,56.7
2018-09-26T09:18:40.228Z,57.1
2018-09-26T09:19:30.835Z,57.3
2018-09-26T09:20:21.502Z,57.5
2018-09-26T09:21:10.650Z,57.7
2018-09-26T09:22:00.667Z,57.8
2018-09-26T09:38:48.381Z,58.9
2018-09-26T09:39:38.181Z,59.1
2018-09-26T09:40:28.451Z,59.1
2018-09-26T09:41:18.513Z,58.8
2018-09-26T09:42:08.492Z,58.4
2018-09-26T09:42:58.580Z,58.2
2018-09-26T09:43:48.767Z,58.4
2018-09-26T09:44:38.752Z,59
2018-09-26T09:45:28.798Z,59.4
2018-09-26T09:46:18.885Z,59.7
2018-09-26T09:47:08.649Z,59.8
2018-09-26T09:47:58.996Z,59.9
2018-09-26T09:48:49.041Z,60
2018-09-26T09:49:39.118Z,60.1
2018-09-26T09:50:29.187Z,60.3
2018-09-26T09:51:19.245Z,60.5
2018-09-26T09:52:09.279Z,60.6
2018-09-26T09:52:59.342Z,60.8
2018-09-26T09:53:49.145Z,60.9
2018-09-26T09:54:39.199Z,61.1
2018-09-26T09:55:29.547Z,61.1
2018-09-26T09:56:19.755Z,61.2
2018-09-26T09:57:09.661Z,61.3
2018-09-26T09:57:59.750Z,61.4
2018-09-26T09:58:49.772Z,61.4
2018-09-26T09:59:39.570Z,61.6
2018-09-26T10:00:29.638Z,61.7
2018-09-26T10:01:20.045Z,61.8
2018-09-26T10:02:10.207Z,61.9
2018-09-26T10:03:00.002Z,62.1
2018-09-26T10:03:50.332Z,62.1
2018-09-26T10:04:40.197Z,62.3
2018-09-26T10:05:29.995Z,62.3
2018-09-26T10:06:20.056Z,62.4
2018-09-26T10:07:10.393Z,62.4
2018-09-26T10:08:00.185Z,62.2
2018-09-26T10:08:50.482Z,61.6
2018-09-26T10:09:40.307Z,61.2
2018-09-26T10:10:30.361Z,60.9
2018-09-26T10:11:20.734Z,60.9
2018-09-26T10:12:10.764Z,61.3
2018-09-26T10:13:00.820Z,61.8
2018-09-26T10:13:50.612Z,62.2
2018-09-26T10:14:40.670Z,62.4
2018-09-26T10:15:31.031Z,62.6
2018-09-26T10:16:21.075Z,62.6
2018-09-26T10:17:11.128Z,62.7
2018-09-26T10:18:00.910Z,62.8
2018-09-26T10:18:51.271Z,62.9
2018-09-26T10:19:41.316Z,63.1
2018-09-26T10:20:31.122Z,63.3
2018-09-26T10:21:21.447Z,63.4
2018-09-26T10:22:11.548Z,63.5
2018-09-26T10:23:01.010Z,63.5
2018-09-26T10:23:51.631Z,63.3
2018-09-26T10:24:41.697Z,63.1
2018-09-26T10:25:31.774Z,63.3
2018-09-26T10:26:22.283Z,63.4
2018-09-26T10:27:11.866Z,63.3
2018-09-26T10:28:01.934Z,63.1
2018-09-26T10:28:52.026Z,63
2018-09-26T10:29:42.060Z,62.7
2018-09-26T10:30:32.166Z,62.3
2018-09-26T10:31:22.191Z,61.9
2018-09-26T10:32:12.416Z,61.6
2018-09-26T10:33:02.324Z,61.4
2018-09-26T10:33:52.363Z,61.2
2018-09-26T10:34:42.554Z,61
2018-09-26T10:35:32.516Z,60.8
2018-09-26T10:36:22.589Z,60.7
2018-09-26T10:37:12.656Z,60.6
2018-09-26T10:38:02.693Z,60.7
2018-09-26T10:38:52.988Z,61.1
2018-09-26T10:39:42.521Z,61.5
2018-09-26T10:40:32.879Z,61.4
2018-09-26T10:41:22.681Z,61.1
2018-09-26T10:42:12.687Z,60.9
2018-09-26T10:43:02.476Z,61.2
2018-09-26T10:43:53.129Z,61.8
2018-09-26T10:44:43.153Z,62.3
2018-09-26T10:45:33.223Z,62.7
2018-09-26T10:46:23.285Z,63
2018-09-26T10:47:13.056Z,63.1
2018-09-26T10:48:03.395Z,62.9
2018-09-26T10:48:53.465Z,62.6
2018-09-26T10:49:43.516Z,62.5
2018-09-26T10:50:33.583Z,62.8
2018-09-26T10:51:23.660Z,62.8
2018-09-26T10:52:13.718Z,62.5
2018-09-26T10:53:03.540Z,62.1
2018-09-26T10:53:53.822Z,61.6
2018-09-26T10:54:43.900Z,61.5
2018-09-26T10:55:34.202Z,61.7
2018-09-26T10:56:24.349Z,62.3
2018-09-26T10:57:14.098Z,62.9
2018-09-26T10:58:04.125Z,63.3
2018-09-26T10:58:54.191Z,63.6
2018-09-26T10:59:44.247Z,63.6
2018-09-26T11:00:34.319Z,63.4
2018-09-26T11:01:24.389Z,63.4
2018-09-26T11:02:14.984Z,63.4
2018-09-26T11:03:03.942Z,63.2
2018-09-26T11:03:54.279Z,63.1
2018-09-26T11:04:44.634Z,63
2018-09-26T11:05:34.642Z,62.9
2018-09-26T11:06:24.784Z,62.8
2018-09-26T11:07:14.530Z,62.5
2018-09-26T11:08:04.971Z,62.4
2018-09-26T11:08:54.909Z,62.2
2018-09-26T11:09:45.017Z,62.1
2018-09-26T11:10:34.787Z,62.1
2018-09-26T11:11:25.107Z,62.1
2018-09-26T11:12:15.169Z,61.9
2018-09-26T11:13:05.249Z,61.6
2018-09-26T11:13:54.737Z,61.4
2018-09-26T11:14:45.357Z,61.6
2018-09-26T11:15:35.464Z,62.1
2018-09-26T11:16:25.794Z,62.6
2018-09-26T11:17:15.538Z,62.6
2018-09-26T11:18:05.649Z,62.2
2018-09-26T11:18:55.559Z,61.7
2018-09-26T11:19:45.725Z,61.5
2018-09-26T11:20:35.919Z,61.6
2018-09-26T11:21:25.681Z,61.5
2018-09-26T11:22:15.796Z,61.4
2018-09-26T11:23:05.980Z,61.1
2018-09-26T11:23:56.038Z,60.9
2018-09-26T11:24:46.101Z,60.7
2018-09-26T11:25:36.153Z,60.6
2018-09-26T11:26:26.709Z,60.4
2018-09-26T11:27:16.283Z,60.3
2018-09-26T11:28:06.129Z,60.1
2018-09-26T11:28:56.128Z,59.9
2018-09-26T11:29:46.178Z,60
2018-09-26T11:30:36.520Z,60.3
2018-09-26T11:31:26.598Z,60.9
2018-09-26T11:32:16.959Z,61.5
2018-09-26T11:33:06.427Z,61.9
2018-09-26T11:33:56.794Z,61.9
2018-09-26T11:34:46.555Z,61.8
2018-09-26T11:35:36.613Z,61.8
2018-09-26T11:36:26.673Z,61.4
2018-09-26T11:37:16.995Z,61
2018-09-26T11:38:07.259Z,60.7
2018-09-26T11:38:57.157Z,60.4
2018-09-26T11:39:47.205Z,60.3
2018-09-26T11:40:37.247Z,60.4
2018-09-26T11:41:27.042Z,60.8
2018-09-26T11:42:17.109Z,61.3
2018-09-26T11:43:07.462Z,61.2
2018-09-26T11:43:57.240Z,60.8
2018-09-26T11:44:48.036Z,60.4
2018-09-26T11:45:37.630Z,60
2018-09-26T11:46:27.915Z,59.8
2018-09-26T11:47:17.483Z,59.8
2018-09-26T11:48:07.286Z,59.6
2018-09-26T11:48:57.867Z,59.5
2018-09-26T11:49:47.954Z,59.6
2018-09-26T11:50:37.429Z,59.8
2018-09-26T11:51:27.782Z,59.8
2018-09-26T11:52:17.657Z,59.6
2018-09-26T11:53:08.171Z,59.3
2018-09-26T11:53:58.239Z,59.1
2018-09-26T11:54:48.289Z,58.9
2018-09-26T11:55:38.390Z,58.8
2018-09-26T11:56:28.809Z,58.7
2018-09-26T11:58:08.429Z,58.4
2018-09-26T11:58:58.654Z,58.3
2018-09-26T11:59:48.651Z,58.1
2018-09-26T12:00:38.720Z,58.1
2018-09-26T12:01:28.818Z,58.1
2018-09-26T12:02:19.304Z,58.1
2018-09-26T12:03:08.911Z,58.2
2018-09-26T12:03:58.569Z,58.5
2018-09-26T12:04:48.736Z,59
2018-09-26T12:05:38.641Z,59.4
2018-09-26T12:06:28.887Z,59.8
2018-09-26T12:07:19.374Z,59.9
2018-09-26T12:08:09.455Z,60.1
2018-09-26T12:08:59.639Z,60.2
2018-09-26T12:09:49.125Z,59.7
2018-09-26T12:10:39.473Z,58.9
2018-09-26T12:11:29.542Z,58.1